Time;durP1;ratioP1;P1;durP2;ratioP2;P2;SDS_P1;SDS_P2;PMS_P1;PMS_P2;Temp;Humidity;BMP_temperature;BMP_pressure;BME280_temperature;BME280_humidity;BME280_pressure;Samples;Min_cycle;Max_cycle;Signal;HPM_P1;HPM_P2
2023/05/19 00:01:07;;;;;;;;;30.67;28.67;;;;;12.99;82.67;99391.91;5029230;28;45549;-76
2023/05/19 00:03:36;;;;;;;;;32.00;31.00;;;;;12.96;82.13;99398.19;5046937;28;45469;-76
2023/05/19 00:06:03;;;;;;;;;30.33;29.00;;;;;12.95;82.20;99399.13;5052922;28;45460;-75
2023/05/19 00:08:33;;;;;;;;;32.33;30.00;;;;;12.94;82.52;99397.41;5047390;28;45386;-75
2023/05/19 00:10:59;;;;;;;;;31.67;29.33;;;;;12.92;82.42;99392.19;5045159;28;45449;-75
2023/05/19 00:13:25;;;;;;;;;28.00;27.67;;;;;12.92;82.23;99394.81;5047837;28;45444;-75
2023/05/19 00:15:51;;;;;;;;;31.00;28.33;;;;;12.92;82.59;99396.63;5044336;28;45406;-75
2023/05/19 00:18:16;;;;;;;;;33.33;28.67;;;;;12.88;82.68;99397.72;5048306;28;45296;-75
2023/05/19 00:20:42;;;;;;;;;29.33;26.33;;;;;12.85;83.01;99398.69;5027166;28;47095;-75
2023/05/19 00:23:10;;;;;;;;;28.00;26.00;;;;;12.81;83.03;99394.47;5042906;28;45381;-75
2023/05/19 00:25:35;;;;;;;;;28.67;27.00;;;;;12.76;83.25;99392.94;5056656;28;45528;-75
2023/05/19 00:28:01;;;;;;;;;29.00;29.00;;;;;12.71;83.26;99384.38;5050820;28;45429;-75
2023/05/19 00:30:28;;;;;;;;;29.33;28.33;;;;;12.65;83.62;99387.28;5032303;28;47527;-75
2023/05/19 00:32:53;;;;;;;;;28.00;28.00;;;;;12.60;84.24;99384.81;5047583;28;45461;-75
2023/05/19 00:35:19;;;;;;;;;29.00;27.00;;;;;12.54;83.66;99385.97;5038319;28;45547;-75
2023/05/19 00:37:45;;;;;;;;;28.33;26.00;;;;;12.51;83.71;99387.88;5026774;28;45408;-75
2023/05/19 00:40:10;;;;;;;;;30.00;28.00;;;;;12.51;83.75;99382.59;5031435;28;47101;-75
2023/05/19 00:42:37;;;;;;;;;27.00;26.00;;;;;12.49;82.95;99387.09;5038586;28;45417;-75
2023/05/19 00:45:03;;;;;;;;;26.00;23.67;;;;;12.45;83.20;99388.16;5031369;28;45385;-75
2023/05/19 00:47:29;;;;;;;;;25.00;23.33;;;;;12.43;84.07;99382.06;5044649;28;45234;-75
2023/05/19 00:49:54;;;;;;;;;26.33;25.33;;;;;12.41;84.13;99373.34;5030754;28;47697;-75
2023/05/19 00:52:20;;;;;;;;;25.00;22.67;;;;;12.36;84.39;99370.91;5043796;28;45445;-75
2023/05/19 00:54:45;;;;;;;;;28.67;25.33;;;;;12.38;84.43;99369.06;5047483;28;45436;-75
2023/05/19 00:57:13;;;;;;;;;28.33;24.00;;;;;12.40;84.58;99369.00;5025231;28;45604;-75
2023/05/19 00:59:38;;;;;;;;;25.33;25.00;;;;;12.41;84.33;99376.84;5047794;28;45429;-75
2023/05/19 01:02:04;;;;;;;;;30.00;26.00;;;;;12.40;84.09;99377.75;5037321;28;45524;-75
2023/05/19 01:04:33;;;;;;;;;23.33;23.33;;;;;12.38;84.12;99370.84;5048918;28;45389;-75
2023/05/19 01:06:59;;;;;;;;;20.67;20.67;;;;;12.37;84.16;99374.41;5044774;28;45393;-75
2023/05/19 01:09:25;;;;;;;;;28.33;26.00;;;;;12.33;83.83;99371.03;5044569;28;46425;-75
2023/05/19 01:11:51;;;;;;;;;21.67;21.00;;;;;12.32;83.86;99369.31;5042151;28;45391;-75
2023/05/19 01:14:18;;;;;;;;;23.00;23.00;;;;;12.30;83.82;99365.00;5048737;28;45551;-75
2023/05/19 01:16:52;;;;;;;;;23.67;23.00;;;;;12.31;84.27;99369.38;5051277;28;45521;-75
2023/05/19 01:19:52;;;;;;;;;27.00;24.67;;;;;12.29;84.52;99366.81;5024712;28;48001;-75
2023/05/19 01:22:45;;;;;;;;;28.33;24.33;;;;;12.29;84.32;99363.28;5042853;28;45408;-75
2023/05/19 01:25:30;;;;;;;;;23.67;23.00;;;;;12.30;84.08;99359.72;5048338;28;45390;-76
2023/05/19 01:28:01;;;;;;;;;27.00;26.00;;;;;12.31;84.31;99362.31;5024471;28;45395;-75
2023/05/19 01:30:35;;;;;;;;;32.00;29.00;;;;;12.33;84.35;99356.97;5043115;28;45485;-74
2023/05/19 01:33:05;;;;;;;;;28.33;28.33;;;;;12.32;84.91;99350.81;5049290;28;45460;-75
2023/05/19 01:35:33;;;;;;;;;30.33;26.33;;;;;12.32;84.52;99353.44;5030094;28;45385;-75
2023/05/19 01:38:00;;;;;;;;;27.67;26.67;;;;;12.33;84.50;99352.53;5036811;28;45573;-74
2023/05/19 01:40:27;;;;;;;;;33.33;29.33;;;;;12.32;84.74;99355.25;5027955;28;47444;-78
2023/05/19 01:42:54;;;;;;;;;24.67;24.00;;;;;12.30;84.81;99355.31;5044035;28;45492;-75
2023/05/19 01:45:20;;;;;;;;;31.00;27.67;;;;;12.30;85.09;99347.38;5030867;28;45320;-76
2023/05/19 01:47:53;;;;;;;;;33.33;31.00;;;;;12.29;84.86;99352.72;5029965;28;45396;-75
2023/05/19 01:50:18;;;;;;;;;28.67;27.00;;;;;12.28;85.07;99351.84;5026021;28;47170;-75
2023/05/19 01:52:44;;;;;;;;;27.33;24.67;;;;;12.28;85.10;99357.16;5051697;28;45481;-75
2023/05/19 01:55:09;;;;;;;;;31.33;28.33;;;;;12.28;85.06;99356.28;5026137;28;45457;-75
2023/05/19 01:57:40;;;;;;;;;34.67;32.33;;;;;12.28;85.12;99348.34;5045192;28;45532;-75
2023/05/19 02:00:22;;;;;;;;;26.33;24.67;;;;;12.27;85.16;99349.28;5025300;28;48153;-75
2023/05/19 02:02:53;;;;;;;;;31.33;28.33;;;;;12.26;85.10;99351.06;5029619;28;45547;-75
2023/05/19 02:05:44;;;;;;;;;28.67;27.67;;;;;12.26;85.44;99356.34;5042576;28;45532;-75
2023/05/19 02:08:22;;;;;;;;;29.00;28.00;;;;;12.27;85.66;99358.06;5025452;28;45798;-75
2023/05/19 02:10:56;;;;;;;;;29.67;27.33;;;;;12.27;85.88;99358.06;5047291;28;45444;-75
2023/05/19 02:13:27;;;;;;;;;29.33;28.00;;;;;12.27;86.05;99359.84;5041817;28;45582;-75
2023/05/19 02:15:58;;;;;;;;;28.67;28.67;;;;;12.27;86.18;99352.78;5019373;28;45378;-75
2023/05/19 02:18:24;;;;;;;;;32.67;29.67;;;;;12.29;85.96;99344.78;5027229;28;45533;-77
2023/05/19 02:20:49;;;;;;;;;30.67;30.33;;;;;12.29;86.34;99350.06;5042432;28;46190;-77
2023/05/19 02:23:14;;;;;;;;;34.67;28.67;;;;;12.29;86.19;99347.44;5046160;28;45385;-77
2023/05/19 02:25:40;;;;;;;;;31.00;28.00;;;;;12.30;86.45;99343.88;5038600;28;45833;-77
2023/05/19 02:28:06;;;;;;;;;28.67;25.67;;;;;12.29;86.38;99344.78;5030339;28;45488;-75
2023/05/19 02:30:31;;;;;;;;;32.33;29.67;;;;;12.29;86.53;99350.06;5024472;28;46429;-77
2023/05/19 02:32:57;;;;;;;;;42.33;35.00;;;;;12.28;86.39;99351.84;5035220;28;45414;-75
2023/05/19 02:35:22;;;;;;;;;27.33;25.67;;;;;12.27;86.16;99349.28;5035200;28;45506;-75
2023/05/19 02:37:47;;;;;;;;;37.33;34.33;;;;;12.24;85.95;99353.78;5035085;28;45518;-75
2023/05/19 02:40:13;;;;;;;;;33.33;30.00;;;;;12.23;86.17;99352.06;5054096;28;46090;-77
2023/05/19 02:42:38;;;;;;;;;33.67;32.00;;;;;12.21;86.44;99347.78;5043808;28;45441;-75
2023/05/19 02:45:04;;;;;;;;;28.00;27.00;;;;;12.22;86.38;99350.38;5035215;28;45299;-75
2023/05/19 02:47:29;;;;;;;;;36.33;30.67;;;;;12.21;86.53;99347.78;5047768;28;45484;-75
2023/05/19 02:49:55;;;;;;;;;12.00;10.00;;;;;12.18;86.72;99346.13;5036653;28;47677;-76
2023/05/19 02:52:20;;;;;;;;;27.00;25.33;;;;;12.15;86.32;99345.41;5022712;28;45455;-76
2023/05/19 02:54:45;;;;;;;;;24.00;21.00;;;;;12.14;86.50;99343.66;5042061;28;45433;-75
2023/05/19 02:57:11;;;;;;;;;24.00;21.33;;;;;12.11;86.39;99342.00;5054628;28;45553;-76
2023/05/19 02:59:36;;;;;;;;;31.67;27.33;;;;;12.10;86.60;99344.72;5048179;28;45634;-76
2023/05/19 03:02:02;;;;;;;;;32.67;30.33;;;;;12.08;86.75;99336.00;5034700;28;45433;-75
2023/05/19 03:04:28;;;;;;;;;25.67;23.33;;;;;12.06;87.14;99335.22;5054501;28;45331;-75
2023/05/19 03:06:54;;;;;;;;;23.00;21.67;;;;;12.05;87.23;99336.16;5035440;28;45672;-75
2023/05/19 03:09:29;;;;;;;;;24.00;22.33;;;;;12.02;87.43;99334.50;5046926;28;45403;-75
2023/05/19 03:11:54;;;;;;;;;24.00;23.00;;;;;12.03;87.16;99335.34;5029314;28;45497;-76
2023/05/19 03:14:22;;;;;;;;;27.00;23.00;;;;;12.01;87.33;99330.13;5030818;28;45894;-75
2023/05/19 03:16:48;;;;;;;;;27.00;25.67;;;;;11.98;86.95;99334.69;5028862;28;45430;-76
2023/05/19 03:19:13;;;;;;;;;28.00;27.00;;;;;11.90;87.17;99327.06;5029976;28;46042;-76
2023/05/19 03:21:39;;;;;;;;;27.33;26.67;;;;;11.88;86.97;99331.59;5028505;28;45422;-76
2023/05/19 03:24:05;;;;;;;;;27.33;24.00;;;;;11.87;86.69;99336.00;5030362;28;45496;-75
2023/05/19 03:26:31;;;;;;;;;31.00;25.67;;;;;11.84;86.62;99330.84;5029958;28;45557;-75
2023/05/19 03:28:56;;;;;;;;;27.33;25.33;;;;;11.82;87.09;99324.75;5030064;28;45536;-75
2023/05/19 03:31:22;;;;;;;;;32.00;27.00;;;;;11.82;86.93;99327.41;5029667;28;45404;-76
2023/05/19 03:33:47;;;;;;;;;29.67;26.67;;;;;11.83;87.08;99330.91;5029874;28;45409;-76
2023/05/19 03:36:13;;;;;;;;;30.67;25.33;;;;;11.84;87.22;99328.19;5028493;28;45480;-76
2023/05/19 03:38:38;;;;;;;;;26.00;24.67;;;;;11.86;87.40;99329.00;5030110;28;45436;-76
2023/05/19 03:41:04;;;;;;;;;24.00;24.00;;;;;11.87;87.21;99321.94;5032041;28;45450;-75
2023/05/19 03:43:29;;;;;;;;;32.33;30.67;;;;;11.87;87.11;99329.84;5030387;28;45496;-76
2023/05/19 03:45:55;;;;;;;;;31.00;30.00;;;;;11.88;87.21;99326.28;5030102;28;45397;-76
2023/05/19 03:48:20;;;;;;;;;31.33;29.67;;;;;11.86;87.42;99326.34;5029824;28;46419;-76
2023/05/19 03:50:47;;;;;;;;;25.33;24.67;;;;;11.85;87.86;99324.63;5029294;28;45455;-75
2023/05/19 03:53:12;;;;;;;;;23.33;23.33;;;;;11.80;87.97;99321.31;5030022;28;45397;-75
2023/05/19 03:55:38;;;;;;;;;29.00;26.00;;;;;11.80;88.10;99329.25;5029502;28;45394;-75
2023/05/19 03:58:03;;;;;;;;;26.67;22.33;;;;;11.77;88.12;99326.72;5029812;28;46204;-76
2023/05/19 04:00:29;;;;;;;;;26.67;26.00;;;;;11.75;88.20;99335.59;5029987;28;45410;-75
2023/05/19 04:02:54;;;;;;;;;28.00;24.00;;;;;11.72;88.25;99328.69;5040004;28;45429;-75
2023/05/19 04:05:19;;;;;;;;;37.67;32.33;;;;;11.74;88.38;99334.75;5027385;28;45471;-75
2023/05/19 04:07:45;;;;;;;;;25.67;23.67;;;;;11.75;88.50;99338.25;5027901;28;47996;-76
2023/05/19 04:10:11;;;;;;;;;28.33;28.33;;;;;11.75;88.74;99336.47;5019245;28;45410;-76
2023/05/19 04:12:37;;;;;;;;;30.33;28.33;;;;;11.79;88.57;99337.22;5030517;28;45447;-75
2023/05/19 04:15:02;;;;;;;;;29.00;25.33;;;;;11.79;88.74;99332.81;5031164;28;45722;-76
2023/05/19 04:17:28;;;;;;;;;30.33;28.33;;;;;11.82;88.67;99334.47;5028889;28;45993;-75
2023/05/19 04:19:54;;;;;;;;;25.67;24.67;;;;;11.85;88.69;99339.63;5020415;28;45331;-75
2023/05/19 04:22:19;;;;;;;;;29.00;26.00;;;;;11.85;88.44;99329.06;5031449;28;45442;-76
2023/05/19 04:24:45;;;;;;;;;30.67;28.67;;;;;11.88;88.73;99329.81;5016105;28;45382;-75
2023/05/19 04:27:11;;;;;;;;;28.00;27.67;;;;;11.90;88.46;99337.63;5014447;28;48510;-75
2023/05/19 04:29:37;;;;;;;;;31.00;28.67;;;;;11.86;87.96;99341.34;5015847;28;45377;-76
2023/05/19 04:32:06;;;;;;;;;28.67;27.67;;;;;11.81;87.97;99338.03;5015926;28;45446;-75
2023/05/19 04:34:39;;;;;;;;;26.33;24.67;;;;;11.72;87.81;99339.25;5015993;28;45600;-76
2023/05/19 04:37:05;;;;;;;;;28.33;26.33;;;;;11.69;87.76;99334.09;5015382;28;45576;-76
2023/05/19 04:39:31;;;;;;;;;34.33;32.00;;;;;11.66;87.79;99336.84;5015853;28;45417;-76
2023/05/19 04:41:56;;;;;;;;;27.00;25.33;;;;;11.65;87.79;99332.50;5031389;28;45599;-75
2023/05/19 04:44:22;;;;;;;;;30.33;29.00;;;;;11.64;87.68;99330.78;5019304;28;45648;-75
2023/05/19 04:46:48;;;;;;;;;27.67;25.00;;;;;11.64;87.58;99332.56;5015712;28;45978;-76
2023/05/19 04:49:14;;;;;;;;;24.33;23.67;;;;;11.61;87.43;99333.53;5014039;28;45437;-76
2023/05/19 04:51:44;;;;;;;;;27.00;27.00;;;;;11.61;87.79;99337.94;5014241;28;45499;-75
2023/05/19 04:54:10;;;;;;;;;25.33;25.00;;;;;11.60;87.86;99338.88;5016029;28;45478;-75
2023/05/19 04:56:35;;;;;;;;;25.00;24.33;;;;;11.60;87.78;99336.22;5014547;28;47717;-75
2023/05/19 04:59:01;;;;;;;;;26.67;26.67;;;;;11.59;87.97;99339.78;5030770;28;45520;-75
2023/05/19 05:01:26;;;;;;;;;29.33;28.33;;;;;11.54;87.77;99340.00;5021540;28;45693;-76
2023/05/19 05:03:54;;;;;;;;;27.33;27.33;;;;;11.50;87.36;99344.53;5011304;28;45453;-76
2023/05/19 05:06:20;;;;;;;;;27.00;26.33;;;;;11.49;88.56;99342.81;5015398;28;45472;-76
2023/05/19 05:08:46;;;;;;;;;30.00;28.00;;;;;11.50;88.58;99343.69;5029370;28;45394;-75
2023/05/19 05:11:11;;;;;;;;;29.00;25.67;;;;;11.54;88.65;99345.28;5017360;28;45483;-75
2023/05/19 05:13:37;;;;;;;;;29.67;25.00;;;;;11.56;88.41;99345.22;5017222;28;45579;-76
2023/05/19 05:16:05;;;;;;;;;27.33;24.67;;;;;11.57;88.42;99350.41;5035178;28;45386;-75
2023/05/19 05:18:32;;;;;;;;;29.33;27.67;;;;;11.58;88.52;99348.63;5034768;28;45464;-75
2023/05/19 05:20:57;;;;;;;;;30.33;28.00;;;;;11.60;88.86;99354.72;5034684;28;45471;-76
2023/05/19 05:23:23;;;;;;;;;24.67;23.00;;;;;11.58;88.40;99354.78;5020463;28;46192;-76
2023/05/19 05:25:49;;;;;;;;;30.67;26.67;;;;;11.56;88.35;99351.38;5034754;28;45481;-75
2023/05/19 05:28:14;;;;;;;;;25.67;25.67;;;;;11.54;88.10;99353.19;5034884;28;45317;-75
2023/05/19 05:30:40;;;;;;;;;30.00;27.00;;;;;11.52;88.14;99347.13;5016209;28;45504;-75
2023/05/19 05:33:05;;;;;;;;;29.00;27.33;;;;;11.54;88.26;99340.88;5034337;28;45459;-75
2023/05/19 05:35:31;;;;;;;;;26.00;24.33;;;;;11.57;88.31;99342.50;5034338;28;45480;-76
2023/05/19 05:37:56;;;;;;;;;32.00;29.00;;;;;11.59;88.16;99347.72;5016086;28;45332;-75
2023/05/19 05:40:21;;;;;;;;;28.33;27.00;;;;;11.63;88.21;99344.03;5035176;28;45299;-75
2023/05/19 05:42:47;;;;;;;;;26.67;25.33;;;;;11.67;87.84;99343.00;5034596;28;45386;-76
2023/05/19 05:45:12;;;;;;;;;24.67;24.00;;;;;11.75;87.86;99333.81;5016391;28;47193;-75
2023/05/19 05:47:40;;;;;;;;;26.00;24.00;;;;;11.88;87.63;99344.78;5034288;28;45328;-76
2023/05/19 05:50:07;;;;;;;;;28.33;27.33;;;;;12.01;87.64;99345.13;5016198;28;45512;-75
2023/05/19 05:52:35;;;;;;;;;28.00;28.00;;;;;12.15;87.77;99342.75;5034186;28;45517;-76
2023/05/19 05:55:01;;;;;;;;;30.33;27.67;;;;;12.30;87.60;99346.50;5032672;28;46864;-77
2023/05/19 05:57:29;;;;;;;;;31.67;28.67;;;;;12.44;87.08;99336.19;5034474;28;45418;-75
2023/05/19 05:59:54;;;;;;;;;28.00;24.33;;;;;12.59;86.81;99339.00;5016500;28;45349;-75
2023/05/19 06:02:20;;;;;;;;;29.67;26.67;;;;;12.75;86.25;99336.53;5016456;28;45626;-74
2023/05/19 06:04:46;;;;;;;;;24.33;24.33;;;;;12.90;85.66;99337.63;5033852;28;46539;-76
2023/05/19 06:07:11;;;;;;;;;33.67;28.67;;;;;13.05;85.03;99334.28;5034305;28;45370;-78
2023/05/19 06:09:36;;;;;;;;;27.67;26.33;;;;;13.18;84.42;99324.00;5034415;28;45389;-76
2023/05/19 06:12:02;;;;;;;;;29.67;28.33;;;;;13.29;84.17;99321.69;5033906;28;45393;-76
2023/05/19 06:14:27;;;;;;;;;37.33;32.00;;;;;13.41;83.01;99328.16;5014571;28;46716;-75
2023/05/19 06:16:53;;;;;;;;;35.67;30.67;;;;;13.41;82.76;99318.44;5011003;28;45592;-76
2023/05/19 06:19:19;;;;;;;;;28.33;26.67;;;;;13.42;82.54;99325.44;5023052;28;45439;-75
2023/05/19 06:21:44;;;;;;;;;30.67;28.67;;;;;13.44;82.28;99325.38;5033497;28;45505;-75
2023/05/19 06:24:10;;;;;;;;;27.00;27.00;;;;;13.44;82.32;99322.72;5034360;28;46421;-77
2023/05/19 06:26:36;;;;;;;;;28.33;27.00;;;;;13.50;82.40;99323.31;5034027;28;45461;-77
2023/05/19 06:29:01;;;;;;;;;31.00;27.67;;;;;13.57;82.42;99327.34;5013265;28;45422;-77
2023/05/19 06:31:28;;;;;;;;;28.67;27.00;;;;;13.62;82.15;99319.19;5015591;28;45383;-77
2023/05/19 06:33:53;;;;;;;;;28.00;25.00;;;;;13.65;81.94;99313.75;5033994;28;46366;-78
2023/05/19 06:36:19;;;;;;;;;36.67;28.00;;;;;13.71;81.71;99315.25;5018363;28;45394;-77
2023/05/19 06:38:44;;;;;;;;;28.00;27.00;;;;;13.76;81.50;99315.84;5024934;28;45559;-78
2023/05/19 06:41:10;;;;;;;;;30.00;28.67;;;;;13.80;81.30;99305.03;5015518;28;45331;-78
2023/05/19 06:43:35;;;;;;;;;37.00;32.00;;;;;13.88;81.61;99315.25;5032271;28;45484;-78
2023/05/19 06:46:01;;;;;;;;;33.67;31.00;;;;;13.93;81.41;99314.06;5015590;28;45440;-77
2023/05/19 06:48:26;;;;;;;;;30.00;28.67;;;;;13.97;80.96;99306.81;5034299;28;45413;-78
2023/05/19 06:50:55;;;;;;;;;36.33;31.67;;;;;14.04;80.93;99316.19;5030476;28;45571;-77
2023/05/19 06:53:20;;;;;;;;;33.33;31.67;;;;;14.12;80.66;99314.00;5015617;28;47978;-77
2023/05/19 06:55:48;;;;;;;;;35.67;32.00;;;;;14.16;80.59;99304.94;5030037;28;45550;-78
2023/05/19 06:58:15;;;;;;;;;33.00;31.67;;;;;14.22;80.10;99306.44;5027377;28;45349;-77
2023/05/19 07:00:40;;;;;;;;;39.67;34.00;;;;;14.25;80.13;99307.09;5026950;28;45462;-77
2023/05/19 07:03:06;;;;;;;;;35.67;32.33;;;;;14.30;80.13;99304.22;5029831;28;46397;-77
2023/05/19 07:05:31;;;;;;;;;31.00;29.00;;;;;14.42;80.38;99306.25;5025885;28;45599;-77
2023/05/19 07:07:56;;;;;;;;;43.67;36.33;;;;;14.54;80.14;99299.47;5023203;28;45417;-77
2023/05/19 07:10:22;;;;;;;;;38.33;34.33;;;;;14.69;80.06;99300.44;5032862;28;45581;-77
2023/05/19 07:12:47;;;;;;;;;40.67;33.33;;;;;14.81;79.82;99295.31;5015465;28;46553;-78
2023/05/19 07:15:13;;;;;;;;;40.00;36.00;;;;;14.98;78.78;99295.25;5032859;28;45484;-78
2023/05/19 07:17:38;;;;;;;;;41.00;34.33;;;;;15.11;78.45;99294.56;5033576;28;45493;-77
2023/05/19 07:20:05;;;;;;;;;39.00;33.67;;;;;15.25;78.57;99295.50;5012764;28;45426;-78
2023/05/19 07:22:38;;;;;;;;;37.67;33.00;;;;;15.44;77.42;99294.47;5027784;28;45520;-77
2023/05/19 07:25:04;;;;;;;;;38.00;33.00;;;;;15.59;76.64;99307.75;5008944;28;45512;-78
2023/05/19 07:27:29;;;;;;;;;35.00;31.00;;;;;15.72;76.45;99302.59;5033163;28;45366;-78
2023/05/19 07:29:55;;;;;;;;;36.33;30.00;;;;;15.88;75.52;99299.91;5026327;28;45963;-53
2023/05/19 07:32:20;;;;;;;;;35.33;32.33;;;;;15.97;74.79;99297.53;5032465;28;45388;-59
2023/05/19 07:34:46;;;;;;;;;35.33;32.00;;;;;16.06;74.34;99293.50;5031284;28;45381;-65
2023/05/19 07:37:11;;;;;;;;;40.33;34.00;;;;;16.14;73.95;99291.22;5032134;28;45367;-65
2023/05/19 07:39:36;;;;;;;;;40.67;33.33;;;;;16.14;73.10;99288.56;5031938;28;45504;-65
2023/05/19 07:42:02;;;;;;;;;36.00;33.33;;;;;16.16;73.17;99293.78;5002883;27;46881;-65
2023/05/19 07:44:30;;;;;;;;;33.00;31.67;;;;;16.15;72.27;99292.06;5012406;28;45323;-64
2023/05/19 07:46:55;;;;;;;;;40.33;34.67;;;;;16.12;72.07;99293.13;5012133;28;45560;-64
2023/05/19 07:49:21;;;;;;;;;38.33;33.00;;;;;16.06;72.20;99293.50;4994000;28;45432;-64
2023/05/19 07:51:46;;;;;;;;;34.67;31.00;;;;;16.06;72.62;99290.84;5011560;28;45846;-64
2023/05/19 07:54:11;;;;;;;;;41.00;35.67;;;;;16.15;72.11;99292.94;5012002;28;45479;-64
2023/05/19 07:56:37;;;;;;;;;39.33;34.00;;;;;16.17;71.93;99285.72;4985338;28;45627;-65
2023/05/19 07:59:03;;;;;;;;;35.33;33.33;;;;;16.14;71.58;99285.03;5001175;28;45769;-64
2023/05/19 08:01:29;;;;;;;;;43.33;35.33;;;;;16.16;72.46;99275.16;4991562;28;48524;-64
2023/05/19 08:03:55;;;;;;;;;39.33;34.67;;;;;16.18;71.51;99273.28;5009816;28;45454;-65
2023/05/19 08:06:21;;;;;;;;;40.67;35.00;;;;;16.14;71.17;99279.72;4992748;28;45472;-64
2023/05/19 08:08:46;;;;;;;;;35.33;32.00;;;;;16.16;71.58;99276.03;5010481;28;45677;-65
2023/05/19 08:11:12;;;;;;;;;36.33;29.00;;;;;16.15;71.05;99274.31;5009878;28;47006;-65
2023/05/19 08:13:37;;;;;;;;;36.67;34.00;;;;;16.14;71.11;99271.75;5010127;28;45351;-65
2023/05/19 08:16:03;;;;;;;;;37.33;33.00;;;;;16.12;71.12;99274.50;5008094;28;45458;-64
2023/05/19 08:18:29;;;;;;;;;36.33;32.67;;;;;16.15;71.30;99265.47;5009756;28;45470;-65
2023/05/19 08:20:55;;;;;;;;;36.33;32.33;;;;;16.26;71.51;99265.66;4991565;28;46917;-65
2023/05/19 08:23:20;;;;;;;;;35.67;32.00;;;;;16.37;71.65;99264.09;5010687;28;45756;-65
2023/05/19 08:25:46;;;;;;;;;39.00;33.67;;;;;16.50;71.13;99256.19;5006692;28;45485;-65
2023/05/19 08:28:12;;;;;;;;;39.33;31.67;;;;;16.65;70.50;99254.41;5002405;28;45511;-65
2023/05/19 08:30:37;;;;;;;;;39.00;31.67;;;;;16.77;69.60;99244.78;5011192;28;46300;-65
2023/05/19 08:33:03;;;;;;;;;29.00;29.00;;;;;16.76;69.36;99256.41;4992316;28;45487;-65
2023/05/19 08:35:28;;;;;;;;;34.33;32.67;;;;;16.63;69.02;99251.84;5010970;28;45491;-65
2023/05/19 08:37:53;;;;;;;;;34.33;33.00;;;;;16.55;69.54;99247.94;5011546;28;45403;-65
2023/05/19 08:40:19;;;;;;;;;31.00;29.67;;;;;16.58;69.98;99245.09;5011595;28;46190;-64
2023/05/19 08:42:44;;;;;;;;;36.67;33.00;;;;;16.68;69.42;99246.25;5010901;28;45460;-64
2023/05/19 08:45:10;;;;;;;;;39.00;35.33;;;;;16.74;69.39;99233.41;5011206;28;45480;-65
2023/05/19 08:47:36;;;;;;;;;29.33;29.33;;;;;16.82;69.03;99240.88;5010459;28;45560;-65
2023/05/19 08:50:06;;;;;;;;;34.00;31.00;;;;;16.90;69.05;99240.41;5009397;28;45792;-65
2023/05/19 08:52:41;;;;;;;;;37.75;33.75;;;;;16.98;68.11;99241.63;5009970;28;45452;-64
2023/05/19 08:55:20;;;;;;;;;33.00;32.67;;;;;17.02;68.65;99243.13;5009982;28;45520;-64
2023/05/19 08:57:47;;;;;;;;;36.00;34.33;;;;;17.11;66.95;99247.00;4995378;28;45410;-64
2023/05/19 09:00:15;;;;;;;;;32.25;30.50;;;;;17.14;67.35;99248.63;5009203;28;46597;-65
2023/05/19 09:02:41;;;;;;;;;28.75;27.25;;;;;17.21;67.22;99245.47;5009017;28;45415;-65
2023/05/19 09:05:08;;;;;;;;;35.25;30.75;;;;;17.32;67.08;99232.28;5008562;28;45463;-65
2023/05/19 09:07:35;;;;;;;;;30.00;29.67;;;;;17.47;67.05;99229.56;5009507;28;45456;-65
2023/05/19 09:10:01;;;;;;;;;30.00;27.75;;;;;17.61;66.50;99226.81;5009084;28;46499;-65
2023/05/19 09:12:27;;;;;;;;;32.50;29.50;;;;;17.72;65.80;99222.53;5009518;28;45841;-65
2023/05/19 09:14:52;;;;;;;;;31.33;30.67;;;;;17.78;65.81;99219.44;5007652;28;45533;-65
2023/05/19 09:17:18;;;;;;;;;28.25;26.00;;;;;17.93;65.76;99222.84;5008592;28;45506;-65
2023/05/19 09:19:46;;;;;;;;;32.25;30.50;;;;;18.09;65.27;99222.69;5009239;28;45591;-65
2023/05/19 09:22:14;;;;;;;;;34.00;30.50;;;;;18.30;64.65;99220.31;5008872;28;45519;-65
2023/05/19 09:24:41;;;;;;;;;31.25;25.50;;;;;18.42;64.34;99216.81;5009396;28;45414;-65
2023/05/19 09:27:07;;;;;;;;;26.00;24.75;;;;;18.52;64.04;99219.66;5000153;28;45549;-65
2023/05/19 09:29:32;;;;;;;;;23.75;23.50;;;;;18.64;63.90;99221.47;5008371;28;47094;-65
2023/05/19 09:32:03;;;;;;;;;29.75;25.75;;;;;18.78;61.71;99222.19;5020629;28;45694;-66
2023/05/19 09:34:29;;;;;;;;;22.75;22.25;;;;;18.86;61.76;99218.97;5007178;28;45473;-65
2023/05/19 09:36:56;;;;;;;;;22.75;20.25;;;;;18.96;60.57;99216.47;5009980;28;45578;-65
2023/05/19 09:39:23;;;;;;;;;29.75;27.50;;;;;18.99;60.85;99210.91;5009125;28;46496;-65
2023/05/19 09:41:53;;;;;;;;;22.25;22.25;;;;;19.07;60.47;99217.44;5006659;28;45540;-65
2023/05/19 09:44:23;;;;;;;;;22.00;22.00;;;;;19.16;60.11;99211.41;5010468;28;45518;-65
2023/05/19 09:46:53;;;;;;;;;23.75;22.75;;;;;19.26;60.30;99205.38;5007009;28;45591;-65
2023/05/19 09:49:23;;;;;;;;;22.75;20.25;;;;;19.34;59.26;99213.66;5010318;28;45687;-65
2023/05/19 09:52:00;;;;;;;;;18.00;17.25;;;;;19.33;58.56;99207.47;5006465;28;45594;-65
2023/05/19 09:54:27;;;;;;;;;22.25;21.75;;;;;19.38;57.91;99209.81;5007436;28;45499;-60
2023/05/19 09:56:57;;;;;;;;;21.00;20.75;;;;;19.45;58.61;99208.34;5002058;28;45592;-60
2023/05/19 09:59:24;;;;;;;;;18.00;18.00;;;;;19.43;58.34;99204.97;5005948;28;45370;-60
2023/05/19 10:01:52;;;;;;;;;19.00;18.00;;;;;19.41;58.05;99204.25;5007223;28;45494;-60
2023/05/19 10:04:18;;;;;;;;;18.00;16.25;;;;;19.39;56.61;99201.66;5009265;28;45493;-60
2023/05/19 10:06:44;;;;;;;;;15.50;15.50;;;;;19.42;56.49;99200.59;5008941;28;45374;-59
2023/05/19 10:09:11;;;;;;;;;17.25;14.50;;;;;19.49;56.61;99200.03;5009024;28;46049;-59
2023/05/19 10:11:36;;;;;;;;;20.80;17.40;;;;;19.65;55.86;99204.22;5009310;28;45366;-60
2023/05/19 10:14:03;;;;;;;;;23.50;19.00;;;;;19.79;55.95;99194.16;5009150;28;45485;-59
2023/05/19 10:16:29;;;;;;;;;18.50;18.25;;;;;19.96;56.16;99195.53;4991537;28;45440;-59
2023/05/19 10:18:58;;;;;;;;;17.25;15.00;;;;;20.12;56.10;99196.06;4991067;28;47361;-60
2023/05/19 10:21:23;;;;;;;;;27.75;20.00;;;;;20.22;55.60;99190.84;5007880;28;45602;-59
2023/05/19 10:23:49;;;;;;;;;17.50;15.50;;;;;20.30;56.07;99188.41;5010134;28;45538;-59
2023/05/19 10:26:15;;;;;;;;;19.25;17.75;;;;;20.37;55.47;99189.69;5006170;28;45379;-60
2023/05/19 10:28:43;;;;;;;;;22.25;21.25;;;;;20.40;55.55;99186.75;5001820;28;45583;-60
2023/05/19 10:31:15;;;;;;;;;19.25;19.25;;;;;20.36;55.40;99187.97;5009546;28;45311;-59
2023/05/19 10:33:51;;;;;;;;;19.50;18.50;;;;;20.29;55.55;99189.38;5008589;28;45368;-59
2023/05/19 10:36:43;;;;;;;;;17.50;16.50;;;;;20.25;54.66;99179.91;4989279;28;45936;-60
2023/05/19 10:39:16;;;;;;;;;21.25;17.00;;;;;20.30;54.15;99183.06;5009132;28;45578;-59
2023/05/19 10:41:50;;;;;;;;;14.20;14.00;;;;;20.20;53.64;99185.63;5009163;28;45434;-60
2023/05/19 10:44:39;;;;;;;;;12.25;12.25;;;;;20.13;54.19;99184.38;5009042;28;45406;-60
2023/05/19 10:47:10;;;;;;;;;18.25;16.25;;;;;20.16;53.72;99178.78;4988391;28;45516;-60
2023/05/19 10:49:36;;;;;;;;;15.25;15.00;;;;;20.17;53.31;99176.97;5008881;28;45525;-60
2023/05/19 10:52:02;;;;;;;;;16.00;14.40;;;;;19.98;54.17;99180.22;5009197;28;45580;-60
2023/05/19 10:54:42;;;;;;;;;17.25;12.00;;;;;19.79;53.59;99179.94;5009164;28;45513;-60
2023/05/19 10:57:08;;;;;;;;;19.00;17.75;;;;;19.65;53.96;99182.81;5000000;28;45690;-60
2023/05/19 10:59:38;;;;;;;;;13.75;13.75;;;;;19.47;53.60;99174.34;5004848;28;46616;-60
2023/05/19 11:02:07;;;;;;;;;13.80;12.60;;;;;19.38;53.68;99180.41;5007706;28;45437;-60
2023/05/19 11:04:52;;;;;;;;;12.75;12.75;;;;;19.26;54.13;99167.97;5008425;28;45507;-59
2023/05/19 11:07:20;;;;;;;;;11.00;9.25;;;;;19.12;52.58;99166.28;5007868;28;45537;-59
2023/05/19 11:09:50;;;;;;;;;16.50;14.50;;;;;18.99;54.16;99169.03;4990948;28;48025;-59
2023/05/19 11:12:20;;;;;;;;;11.60;11.60;;;;;18.86;54.48;99168.22;5009317;28;45523;-60
2023/05/19 11:14:46;;;;;;;;;11.25;11.00;;;;;18.80;54.73;99164.19;5009009;28;45568;-63
2023/05/19 11:17:15;;;;;;;;;14.00;14.00;;;;;18.78;54.51;99168.78;5009020;28;45420;-59